RPLL/MNL METAR and TAF weather

Enter ICAO airport designator
Station Type Date Time Source
RPLL METAR 2021/07/28 04:00 UTC NOAA

RPLL 280400Z 25009KT 7000 -RA BKN015 OVC080 27/26 Q1004 NOSIG RMK A2965


Station Type Date Time Source
RPLL Decoded METAR 2021/07/28 04:00 UTC NOAA

Ninoy Aquino Inter-National Airport, Philippines (RPLL) 14-31N 121-00E 15M
Jul 28, 2021 - 12:00 AM EDT / 2021.07.28 0400 UTC
Wind: from the WSW (250 degrees) at 10 MPH (9 KT):0
Visibility: 4 mile(s):0
Sky conditions: overcast
Weather: light rain
Temperature: 80 F (27 C)
Dew Point: 78 F (26 C)
Relative Humidity: 94%
Pressure (altimeter): 29.65 in. Hg (1004 hPa)
ob: RPLL 280400Z 25009KT 7000 -RA BKN015 OVC080 27/26 Q1004 NOSIG RMK A2965
cycle: 4

Station Type Date Time Source
RPLL TAF 2021/07/27 18:25 UTC NOAA

TAF RPLL 271700Z 2718/2824 25015KT 9999 SCT023 BKN090 TX31/2806Z TN26/2721Z
TEMPO 2718/2724 24010KT 7000 -RA SCT023 OVC070
TEMPO 2800/2806 25018G30KT 7000 -RA SCT022 OVC070

Example: see airport list